Time;durP1;ratioP1;P1;durP2;ratioP2;P2;SDS_P1;SDS_P2;PMS_P1;PMS_P2;Temp;Humidity;BMP_temperature;BMP_pressure;BME280_temperature;BME280_humidity;BME280_pressure;Samples;Min_cycle;Max_cycle;Signal;HPM_P1;HPM_P2
2023/05/24 00:01:55;;;;;;;10.93;8.50;;;;;;;;;;5052206;28;20028;-68
2023/05/24 00:04:23;;;;;;;13.43;7.93;;;;;;;;;;5052139;28;20039;-67
2023/05/24 00:06:50;;;;;;;16.80;9.05;;;;;;;;;;5052280;28;20024;-68
2023/05/24 00:09:17;;;;;;;14.20;8.27;;;;;;;;;;5052083;28;20542;-67
2023/05/24 00:11:43;;;;;;;12.60;8.48;;;;;;;;;;5052123;28;20093;-67
2023/05/24 00:14:09;;;;;;;12.70;7.72;;;;;;;;;;5051086;28;20033;-67
2023/05/24 00:16:36;;;;;;;13.23;8.23;;;;;;;;;;5052207;28;20025;-67
2023/05/24 00:19:02;;;;;;;12.45;7.72;;;;;;;;;;5051990;28;20504;-68
2023/05/24 00:21:29;;;;;;;13.40;8.60;;;;;;;;;;5052216;28;20029;-68
2023/05/24 00:23:55;;;;;;;13.27;8.95;;;;;;;;;;5051740;28;20047;-67
2023/05/24 00:26:22;;;;;;;11.60;8.45;;;;;;;;;;5052091;28;20520;-67
2023/05/24 00:28:48;;;;;;;14.52;8.25;;;;;;;;;;5052183;28;20031;-67
2023/05/24 00:31:14;;;;;;;12.23;8.23;;;;;;;;;;5051860;28;20036;-67
2023/05/24 00:33:41;;;;;;;13.40;8.52;;;;;;;;;;5051832;28;20039;-67
2023/05/24 00:36:08;;;;;;;12.07;7.97;;;;;;;;;;5051789;28;20413;-67
2023/05/24 00:38:34;;;;;;;11.20;8.07;;;;;;;;;;5051865;28;20029;-67
2023/05/24 00:41:01;;;;;;;14.07;8.80;;;;;;;;;;5052149;28;20029;-67
2023/05/24 00:43:27;;;;;;;15.20;8.40;;;;;;;;;;5051799;28;20029;-68
2023/05/24 00:46:07;;;;;;;15.38;8.80;;;;;;;;;;5055202;28;20031;-67
2023/05/24 00:48:34;;;;;;;11.38;8.02;;;;;;;;;;5055872;28;20025;-68
2023/05/24 00:51:00;;;;;;;13.27;8.73;;;;;;;;;;5055763;28;20029;-67
2023/05/24 00:53:27;;;;;;;13.15;8.23;;;;;;;;;;5055701;28;20074;-67
2023/05/24 00:55:54;;;;;;;13.55;8.85;;;;;;;;;;5055647;28;20021;-67
2023/05/24 00:58:25;;;;;;;12.20;8.85;;;;;;;;;;5055375;28;20581;-68
2023/05/24 01:00:55;;;;;;;19.33;9.27;;;;;;;;;;5055506;28;20024;-67
2023/05/24 01:03:22;;;;;;;15.35;8.85;;;;;;;;;;5055569;28;20040;-67
2023/05/24 01:05:48;;;;;;;15.23;9.30;;;;;;;;;;5055302;28;20031;-68
2023/05/24 01:08:17;;;;;;;17.60;10.05;;;;;;;;;;5055750;28;20036;-68
2023/05/24 01:11:01;;;;;;;11.18;8.90;;;;;;;;;;5055626;28;20025;-67
2023/05/24 01:13:31;;;;;;;18.75;9.30;;;;;;;;;;5055302;28;20017;-68
2023/05/24 01:16:16;;;;;;;15.50;9.07;;;;;;;;;;5055423;28;20508;-67
2023/05/24 01:18:53;;;;;;;16.50;9.15;;;;;;;;;;5055190;28;20512;-68
2023/05/24 01:21:33;;;;;;;13.68;8.63;;;;;;;;;;5055049;28;20486;-68
2023/05/24 01:24:10;;;;;;;17.48;9.73;;;;;;;;;;5054933;28;20059;-68
2023/05/24 01:26:45;;;;;;;14.95;10.13;;;;;;;;;;5055508;28;20017;-67
2023/05/24 01:29:12;;;;;;;18.98;8.95;;;;;;;;;;5055121;28;20033;-67
2023/05/24 01:31:39;;;;;;;12.45;9.32;;;;;;;;;;5055210;28;20032;-68
2023/05/24 01:34:06;;;;;;;13.65;9.48;;;;;;;;;;5054910;28;20028;-67
2023/05/24 01:36:32;;;;;;;15.20;9.68;;;;;;;;;;5054782;28;20029;-67
2023/05/24 01:38:58;;;;;;;15.60;9.57;;;;;;;;;;5053712;28;20021;-67
2023/05/24 01:41:28;;;;;;;19.27;10.05;;;;;;;;;;5053652;28;20025;-67
2023/05/24 01:44:09;;;;;;;13.55;8.98;;;;;;;;;;5054679;28;20146;-67
2023/05/24 01:46:36;;;;;;;15.40;9.20;;;;;;;;;;5054799;28;20017;-67
2023/05/24 01:49:03;;;;;;;16.25;8.40;;;;;;;;;;5054678;28;20029;-67
2023/05/24 01:51:41;;;;;;;12.95;8.98;;;;;;;;;;5054845;28;20029;-67
2023/05/24 01:54:08;;;;;;;12.57;8.45;;;;;;;;;;5054533;28;20066;-67
2023/05/24 01:56:35;;;;;;;13.55;8.90;;;;;;;;;;5054100;28;20504;-67
2023/05/24 01:59:02;;;;;;;12.80;8.90;;;;;;;;;;5054440;28;20024;-67
2023/05/24 02:01:29;;;;;;;13.00;8.27;;;;;;;;;;5054752;28;20466;-67
2023/05/24 02:03:55;;;;;;;14.15;8.23;;;;;;;;;;5054173;28;20401;-67
2023/05/24 02:06:21;;;;;;;11.30;7.90;;;;;;;;;;5054396;28;20401;-67
2023/05/24 02:08:48;;;;;;;10.95;7.88;;;;;;;;;;5054253;28;20029;-68
2023/05/24 02:11:14;;;;;;;17.02;9.45;;;;;;;;;;5054277;28;20017;-68
2023/05/24 02:13:40;;;;;;;10.52;7.97;;;;;;;;;;5054437;28;20040;-67
2023/05/24 02:16:07;;;;;;;16.70;8.00;;;;;;;;;;5053991;28;20021;-67
2023/05/24 02:18:33;;;;;;;17.80;7.70;;;;;;;;;;5053968;28;20035;-67
2023/05/24 02:21:01;;;;;;;15.38;7.80;;;;;;;;;;5054150;28;20029;-67
2023/05/24 02:23:27;;;;;;;9.48;7.05;;;;;;;;;;5053823;28;20048;-67
2023/05/24 02:25:55;;;;;;;13.13;7.70;;;;;;;;;;5054127;28;20055;-67
2023/05/24 02:28:21;;;;;;;19.77;9.60;;;;;;;;;;5054229;28;20021;-68
2023/05/24 02:30:47;;;;;;;14.15;9.45;;;;;;;;;;5053863;28;20047;-68
2023/05/24 02:33:14;;;;;;;15.85;9.40;;;;;;;;;;5053536;28;20025;-68
2023/05/24 02:35:40;;;;;;;19.38;10.00;;;;;;;;;;5053673;28;20033;-68
2023/05/24 02:38:08;;;;;;;13.95;9.98;;;;;;;;;;5053976;28;20036;-67
2023/05/24 02:40:34;;;;;;;15.98;10.05;;;;;;;;;;5053802;28;20436;-67
2023/05/24 02:43:01;;;;;;;18.90;9.95;;;;;;;;;;5053434;28;20028;-67
2023/05/24 02:45:27;;;;;;;14.70;9.95;;;;;;;;;;5053543;28;20017;-68
2023/05/24 02:47:53;;;;;;;17.83;11.07;;;;;;;;;;5053280;28;20025;-67
2023/05/24 02:50:20;;;;;;;23.17;10.60;;;;;;;;;;5053880;28;20025;-67
2023/05/24 02:52:46;;;;;;;23.58;10.98;;;;;;;;;;5053408;28;20032;-67
2023/05/24 02:55:12;;;;;;;15.95;9.75;;;;;;;;;;5053592;28;20041;-67
2023/05/24 02:57:39;;;;;;;15.55;9.65;;;;;;;;;;5053351;28;20027;-67
2023/05/24 03:00:08;;;;;;;19.35;9.68;;;;;;;;;;5053238;28;20025;-67
2023/05/24 03:02:37;;;;;;;23.02;11.10;;;;;;;;;;5053118;28;20035;-68
2023/05/24 03:05:03;;;;;;;42.25;11.77;;;;;;;;;;5053174;28;20573;-68
2023/05/24 03:07:30;;;;;;;42.78;12.20;;;;;;;;;;5052157;28;20029;-68
2023/05/24 03:09:56;;;;;;;45.13;12.45;;;;;;;;;;5053285;28;20029;-67
2023/05/24 03:12:22;;;;;;;33.22;11.95;;;;;;;;;;5053018;28;21322;-67
2023/05/24 03:14:49;;;;;;;19.65;10.60;;;;;;;;;;5053075;28;20025;-67
2023/05/24 03:17:15;;;;;;;21.65;11.23;;;;;;;;;;5052966;28;20035;-67
2023/05/24 03:19:41;;;;;;;42.50;11.88;;;;;;;;;;5052834;28;20018;-67
2023/05/24 03:22:08;;;;;;;39.88;11.95;;;;;;;;;;5052870;28;20025;-67
2023/05/24 03:24:34;;;;;;;32.92;12.48;;;;;;;;;;5052748;28;20049;-68
2023/05/24 03:27:01;;;;;;;50.75;12.55;;;;;;;;;;5052902;28;20535;-68
2023/05/24 03:29:27;;;;;;;38.90;12.30;;;;;;;;;;5052717;28;20017;-68
2023/05/24 03:31:53;;;;;;;24.88;12.85;;;;;;;;;;5052500;28;20033;-67
2023/05/24 03:34:20;;;;;;;17.25;12.63;;;;;;;;;;5052681;28;20035;-67
2023/05/24 03:36:46;;;;;;;17.85;11.15;;;;;;;;;;5052708;28;20389;-68
2023/05/24 03:39:12;;;;;;;12.90;9.13;;;;;;;;;;5052603;28;20374;-67
2023/05/24 03:41:39;;;;;;;11.30;8.98;;;;;;;;;;5052598;28;20021;-68
2023/05/24 03:44:05;;;;;;;11.93;8.32;;;;;;;;;;5052383;28;20044;-68
2023/05/24 03:46:31;;;;;;;11.25;7.95;;;;;;;;;;5052433;28;20504;-67
2023/05/24 03:48:58;;;;;;;14.50;8.52;;;;;;;;;;5052381;28;20032;-67
2023/05/24 03:51:28;;;;;;;9.48;7.43;;;;;;;;;;5052272;28;20031;-67
2023/05/24 03:53:56;;;;;;;11.75;7.57;;;;;;;;;;5052686;28;20039;-67
2023/05/24 03:56:22;;;;;;;13.52;8.23;;;;;;;;;;5052216;28;20415;-68
2023/05/24 03:58:49;;;;;;;14.40;9.13;;;;;;;;;;5052358;28;20025;-67
2023/05/24 04:01:17;;;;;;;15.63;9.02;;;;;;;;;;5052087;28;20025;-67
2023/05/24 04:03:44;;;;;;;16.30;9.80;;;;;;;;;;5052176;28;20029;-68
2023/05/24 04:06:11;;;;;;;14.38;9.40;;;;;;;;;;5052320;28;20029;-67
2023/05/24 04:08:37;;;;;;;14.88;9.25;;;;;;;;;;5052159;28;20376;-68
2023/05/24 04:11:04;;;;;;;14.77;9.60;;;;;;;;;;5052059;28;20489;-68
2023/05/24 04:13:30;;;;;;;11.27;8.75;;;;;;;;;;5052141;28;20047;-67
2023/05/24 04:15:56;;;;;;;17.52;10.40;;;;;;;;;;5051957;28;20359;-67
2023/05/24 04:18:23;;;;;;;15.23;9.98;;;;;;;;;;5052097;28;20037;-67
2023/05/24 04:20:49;;;;;;;15.10;10.38;;;;;;;;;;5052223;28;20222;-67
2023/05/24 04:23:16;;;;;;;15.70;10.02;;;;;;;;;;5051828;28;20055;-67
2023/05/24 04:25:42;;;;;;;14.85;9.80;;;;;;;;;;5051997;28;20499;-67
2023/05/24 04:28:09;;;;;;;21.60;10.80;;;;;;;;;;5052095;28;20028;-67
2023/05/24 04:30:35;;;;;;;15.13;9.75;;;;;;;;;;5051808;28;20021;-67
2023/05/24 04:33:02;;;;;;;15.35;9.95;;;;;;;;;;5051772;28;20025;-67
2023/05/24 04:35:29;;;;;;;15.93;10.10;;;;;;;;;;5051928;28;20397;-68
2023/05/24 04:37:56;;;;;;;15.35;10.13;;;;;;;;;;5052115;28;20537;-67
2023/05/24 04:40:22;;;;;;;14.38;10.90;;;;;;;;;;5051740;28;20389;-67
2023/05/24 04:42:49;;;;;;;20.70;10.45;;;;;;;;;;5051573;28;20496;-67
2023/05/24 04:45:16;;;;;;;17.13;10.90;;;;;;;;;;5051822;28;20037;-68
2023/05/24 04:47:42;;;;;;;16.85;10.13;;;;;;;;;;5051995;28;20035;-67
2023/05/24 04:50:09;;;;;;;15.18;10.50;;;;;;;;;;5052023;28;20033;-68
2023/05/24 04:52:35;;;;;;;12.82;9.95;;;;;;;;;;5051987;28;20017;-67
2023/05/24 04:55:02;;;;;;;14.68;10.35;;;;;;;;;;5051977;28;20028;-67
2023/05/24 04:57:29;;;;;;;17.48;10.30;;;;;;;;;;5051531;28;20025;-67
2023/05/24 04:59:55;;;;;;;13.90;9.95;;;;;;;;;;5051973;28;20033;-68
2023/05/24 05:02:21;;;;;;;16.27;11.10;;;;;;;;;;5051530;28;20025;-67
2023/05/24 05:04:48;;;;;;;13.25;10.23;;;;;;;;;;5051486;28;20051;-68
2023/05/24 05:07:14;;;;;;;27.33;10.38;;;;;;;;;;5051731;28;20024;-67
2023/05/24 05:09:40;;;;;;;16.80;10.73;;;;;;;;;;5051424;28;20035;-67
2023/05/24 05:12:07;;;;;;;21.60;10.80;;;;;;;;;;5051295;28;20021;-68
2023/05/24 05:14:33;;;;;;;18.73;11.35;;;;;;;;;;5051595;28;20477;-68
2023/05/24 05:16:59;;;;;;;21.10;11.20;;;;;;;;;;5051648;28;20029;-67
2023/05/24 05:19:26;;;;;;;36.80;11.15;;;;;;;;;;5051398;28;20490;-68
2023/05/24 05:21:52;;;;;;;22.40;11.70;;;;;;;;;;5051467;28;20013;-68
2023/05/24 05:24:18;;;;;;;30.48;12.40;;;;;;;;;;5051201;28;20424;-67
2023/05/24 05:26:45;;;;;;;20.80;11.65;;;;;;;;;;5051425;28;20035;-67
2023/05/24 05:29:11;;;;;;;26.85;11.55;;;;;;;;;;5051384;28;20400;-67
2023/05/24 05:31:38;;;;;;;19.73;12.45;;;;;;;;;;5053624;28;20029;-68
2023/05/24 05:34:08;;;;;;;31.63;12.52;;;;;;;;;;5055203;28;20013;-67
2023/05/24 05:36:39;;;;;;;24.40;11.55;;;;;;;;;;5054953;28;20017;-67
2023/05/24 05:39:09;;;;;;;29.98;11.48;;;;;;;;;;5055031;28;20033;-67
2023/05/24 05:41:36;;;;;;;24.17;12.85;;;;;;;;;;5054614;28;20029;-67
2023/05/24 05:44:03;;;;;;;22.00;12.40;;;;;;;;;;5054979;28;20043;-67
2023/05/24 05:46:29;;;;;;;23.20;13.02;;;;;;;;;;5055001;28;20017;-67
2023/05/24 05:48:55;;;;;;;16.60;11.55;;;;;;;;;;5054678;28;20496;-67
2023/05/24 05:51:22;;;;;;;18.08;10.98;;;;;;;;;;5054581;28;20021;-67
2023/05/24 05:53:48;;;;;;;29.48;10.52;;;;;;;;;;5054699;28;20511;-67
2023/05/24 05:56:16;;;;;;;14.45;9.48;;;;;;;;;;5054254;28;20444;-67
2023/05/24 05:58:42;;;;;;;11.25;8.85;;;;;;;;;;5054455;28;20021;-67
2023/05/24 06:01:09;;;;;;;11.85;9.98;;;;;;;;;;5054561;28;20109;-67
2023/05/24 06:03:35;;;;;;;21.65;9.73;;;;;;;;;;5054367;28;20576;-67
2023/05/24 06:06:01;;;;;;;13.77;9.85;;;;;;;;;;5054510;28;20040;-67
2023/05/24 06:08:29;;;;;;;12.80;9.23;;;;;;;;;;5052722;28;20630;-67
2023/05/24 06:10:56;;;;;;;13.27;9.45;;;;;;;;;;5051147;28;20043;-67
2023/05/24 06:13:22;;;;;;;11.98;8.23;;;;;;;;;;5052402;28;20021;-67
2023/05/24 06:15:48;;;;;;;18.10;8.60;;;;;;;;;;5053942;28;20470;-67
2023/05/24 06:18:15;;;;;;;10.98;8.82;;;;;;;;;;5053257;28;20032;-67
2023/05/24 06:20:41;;;;;;;12.80;8.93;;;;;;;;;;5053837;28;20393;-67
2023/05/24 06:23:07;;;;;;;11.35;8.65;;;;;;;;;;5053187;28;20053;-66
2023/05/24 06:25:33;;;;;;;10.63;8.05;;;;;;;;;;5052421;28;20025;-67
2023/05/24 06:28:00;;;;;;;21.45;8.90;;;;;;;;;;5052558;28;20025;-67
2023/05/24 06:30:26;;;;;;;13.27;8.63;;;;;;;;;;5053673;28;20029;-67
2023/05/24 06:32:52;;;;;;;10.45;8.45;;;;;;;;;;5052213;28;20013;-67
2023/05/24 06:35:19;;;;;;;10.05;7.53;;;;;;;;;;5050199;28;20025;-66
2023/05/24 06:37:45;;;;;;;9.45;7.82;;;;;;;;;;5047289;28;20401;-66
2023/05/24 06:40:12;;;;;;;14.63;8.02;;;;;;;;;;5052764;28;20513;-66
2023/05/24 06:42:39;;;;;;;11.90;8.13;;;;;;;;;;5047585;28;20042;-67
2023/05/24 06:45:07;;;;;;;9.80;6.88;;;;;;;;;;5045027;28;20035;-66
2023/05/24 06:47:33;;;;;;;9.65;7.45;;;;;;;;;;5049492;28;20070;-66
2023/05/24 06:49:59;;;;;;;10.32;7.25;;;;;;;;;;5052902;28;20023;-66
2023/05/24 06:52:26;;;;;;;8.55;7.05;;;;;;;;;;5052926;28;20527;-67
2023/05/24 06:54:52;;;;;;;10.05;7.78;;;;;;;;;;5052725;28;20048;-67
2023/05/24 06:57:18;;;;;;;9.75;8.40;;;;;;;;;;5052924;28;20013;-67
2023/05/24 06:59:45;;;;;;;9.48;7.68;;;;;;;;;;5052641;28;20037;-67
2023/05/24 07:02:11;;;;;;;10.68;7.95;;;;;;;;;;5052373;28;20025;-67
2023/05/24 07:04:39;;;;;;;11.02;8.07;;;;;;;;;;5052458;28;20094;-67
2023/05/24 07:07:06;;;;;;;9.55;7.32;;;;;;;;;;5057691;28;20463;-66
2023/05/24 07:09:33;;;;;;;8.73;7.00;;;;;;;;;;5052537;28;20025;-66
2023/05/24 07:11:59;;;;;;;9.73;7.50;;;;;;;;;;5054607;28;20043;-67
2023/05/24 07:14:26;;;;;;;7.47;6.40;;;;;;;;;;5063627;28;20033;-67
2023/05/24 07:16:53;;;;;;;9.15;6.82;;;;;;;;;;5052464;28;20021;-67
2023/05/24 07:19:20;;;;;;;7.95;6.60;;;;;;;;;;5052393;28;20041;-67
2023/05/24 07:21:47;;;;;;;7.07;6.30;;;;;;;;;;5051939;28;20021;-67
2023/05/24 07:24:13;;;;;;;7.00;6.03;;;;;;;;;;5062635;28;20049;-67
2023/05/24 07:26:39;;;;;;;7.88;6.30;;;;;;;;;;5050934;28;20024;-66
2023/05/24 07:29:06;;;;;;;8.20;5.82;;;;;;;;;;5051613;28;20025;-67
2023/05/24 07:31:33;;;;;;;6.47;5.70;;;;;;;;;;5033002;28;20043;-67
2023/05/24 07:33:59;;;;;;;8.32;5.85;;;;;;;;;;5052924;28;20018;-67
2023/05/24 07:36:28;;;;;;;6.38;5.50;;;;;;;;;;5075570;28;20025;-67
2023/05/24 07:38:54;;;;;;;7.28;5.93;;;;;;;;;;5051192;28;20024;-67
2023/05/24 07:41:25;;;;;;;8.13;5.80;;;;;;;;;;5048975;28;20031;-66
2023/05/24 07:43:51;;;;;;;7.07;6.30;;;;;;;;;;5053618;28;20027;-67
2023/05/24 07:46:23;;;;;;;6.32;5.45;;;;;;;;;;5051226;28;20035;-66
2023/05/24 07:48:50;;;;;;;6.47;5.72;;;;;;;;;;5051782;28;20032;-67
2023/05/24 07:51:16;;;;;;;6.35;5.75;;;;;;;;;;5050389;28;20021;-68
2023/05/24 07:53:42;;;;;;;6.13;5.50;;;;;;;;;;5051147;28;20393;-67
2023/05/24 07:56:09;;;;;;;5.82;5.22;;;;;;;;;;5051001;28;20024;-67
2023/05/24 07:58:35;;;;;;;6.00;5.40;;;;;;;;;;5051643;28;20039;-67
2023/05/24 08:01:01;;;;;;;5.95;5.35;;;;;;;;;;5051442;28;20416;-67
2023/05/24 08:03:28;;;;;;;5.35;4.85;;;;;;;;;;5051591;28;20032;-67
2023/05/24 08:05:55;;;;;;;6.60;5.05;;;;;;;;;;5051418;28;20025;-67
2023/05/24 08:08:21;;;;;;;8.57;5.55;;;;;;;;;;5051925;28;20017;-68
2023/05/24 08:10:48;;;;;;;6.30;5.70;;;;;;;;;;5051870;28;20035;-67
2023/05/24 08:13:14;;;;;;;6.15;5.55;;;;;;;;;;5051028;28;20032;-67
2023/05/24 08:15:40;;;;;;;6.05;5.45;;;;;;;;;;5050424;28;20027;-67
2023/05/24 08:18:08;;;;;;;9.57;5.50;;;;;;;;;;5051522;28;20025;-67
2023/05/24 08:20:35;;;;;;;6.25;5.07;;;;;;;;;;5051075;28;20031;-68
2023/05/24 08:23:02;;;;;;;8.82;6.03;;;;;;;;;;5050040;28;20049;-67
2023/05/24 08:25:28;;;;;;;5.93;5.15;;;;;;;;;;5051175;28;20048;-67
2023/05/24 08:27:56;;;;;;;6.30;4.63;;;;;;;;;;5051253;28;20029;-67
2023/05/24 08:30:22;;;;;;;5.35;4.82;;;;;;;;;;5067814;28;20032;-68
2023/05/24 08:32:49;;;;;;;5.45;4.95;;;;;;;;;;5044080;28;20066;-68
2023/05/24 08:35:16;;;;;;;5.88;5.10;;;;;;;;;;5050990;28;20508;-68
2023/05/24 08:37:42;;;;;;;5.13;4.70;;;;;;;;;;5051174;28;20025;-67
2023/05/24 08:40:08;;;;;;;5.10;4.53;;;;;;;;;;5051069;28;20039;-68
2023/05/24 08:42:37;;;;;;;5.90;5.30;;;;;;;;;;5051245;28;20024;-68
2023/05/24 08:45:04;;;;;;;6.45;4.78;;;;;;;;;;5051174;28;20041;-67
2023/05/24 08:47:32;;;;;;;5.43;4.93;;;;;;;;;;5050893;28;20367;-67
2023/05/24 08:49:59;;;;;;;5.28;4.78;;;;;;;;;;5066672;28;20034;-67
2023/05/24 08:52:26;;;;;;;7.78;4.80;;;;;;;;;;5071006;28;20611;-68
2023/05/24 08:54:53;;;;;;;4.50;4.10;;;;;;;;;;5053245;28;20021;-68
2023/05/24 08:57:19;;;;;;;4.40;4.00;;;;;;;;;;5050716;28;20031;-69
2023/05/24 08:59:46;;;;;;;7.35;4.70;;;;;;;;;;5056519;28;20039;-69
2023/05/24 09:02:13;;;;;;;5.43;4.32;;;;;;;;;;5050547;28;20025;-67
2023/05/24 09:04:40;;;;;;;5.50;4.90;;;;;;;;;;5052499;28;20493;-68
2023/05/24 09:07:07;;;;;;;5.22;4.72;;;;;;;;;;5053533;28;20025;-68
2023/05/24 09:09:34;;;;;;;4.72;4.20;;;;;;;;;;5054971;28;20074;-69
2023/05/24 09:12:04;;;;;;;3.95;3.65;;;;;;;;;;5054952;28;20032;-68
2023/05/24 09:14:30;;;;;;;5.10;4.30;;;;;;;;;;5054985;28;20507;-69
2023/05/24 09:16:57;;;;;;;4.60;4.20;;;;;;;;;;5055189;28;20017;-67
2023/05/24 09:19:23;;;;;;;7.25;4.68;;;;;;;;;;5054689;28;20016;-68
2023/05/24 09:21:52;;;;;;;4.85;4.35;;;;;;;;;;5054650;28;20048;-69
2023/05/24 09:24:18;;;;;;;4.68;4.28;;;;;;;;;;5054570;28;20421;-68
2023/05/24 09:26:45;;;;;;;5.35;4.68;;;;;;;;;;5054773;28;20414;-67
2023/05/24 09:29:12;;;;;;;8.63;4.50;;;;;;;;;;5054803;28;20363;-68
2023/05/24 09:31:38;;;;;;;8.82;4.90;;;;;;;;;;5054490;28;20455;-68
2023/05/24 09:34:08;;;;;;;7.00;4.97;;;;;;;;;;5054272;28;20035;-69
2023/05/24 09:36:35;;;;;;;6.57;5.43;;;;;;;;;;5054511;28;20033;-68
2023/05/24 09:39:11;;;;;;;6.13;4.90;;;;;;;;;;5054459;28;20432;-68
2023/05/24 09:41:37;;;;;;;9.00;4.88;;;;;;;;;;5054296;28;20021;-68
2023/05/24 09:44:04;;;;;;;5.00;4.57;;;;;;;;;;5054347;28;20130;-68
2023/05/24 09:46:37;;;;;;;5.07;4.53;;;;;;;;;;5054212;28;20033;-68
2023/05/24 09:49:05;;;;;;;4.90;4.40;;;;;;;;;;5054523;28;20031;-68
2023/05/24 09:51:32;;;;;;;7.25;4.80;;;;;;;;;;5053200;28;20029;-68
2023/05/24 09:54:01;;;;;;;5.72;4.82;;;;;;;;;;5054553;28;20051;-68
2023/05/24 09:56:27;;;;;;;5.70;5.20;;;;;;;;;;5054397;28;20070;-68
2023/05/24 09:58:55;;;;;;;7.50;5.32;;;;;;;;;;5054240;28;20039;-68
2023/05/24 10:01:23;;;;;;;6.22;4.78;;;;;;;;;;5054308;28;20037;-68
2023/05/24 10:03:56;;;;;;;5.43;4.93;;;;;;;;;;5054106;28;20397;-68
2023/05/24 10:06:23;;;;;;;8.20;5.32;;;;;;;;;;5053009;28;20070;-68
2023/05/24 10:08:53;;;;;;;6.72;5.07;;;;;;;;;;5054463;28;20057;-68
2023/05/24 10:11:20;;;;;;;5.20;4.70;;;;;;;;;;5054312;28;20017;-68
2023/05/24 10:13:47;;;;;;;6.03;5.40;;;;;;;;;;5054016;28;20025;-68
2023/05/24 10:16:13;;;;;;;8.35;5.90;;;;;;;;;;5053448;28;20036;-68
2023/05/24 10:18:40;;;;;;;6.22;5.35;;;;;;;;;;5054127;28;20037;-68
2023/05/24 10:21:09;;;;;;;8.63;5.03;;;;;;;;;;5053897;28;20087;-68
2023/05/24 10:23:39;;;;;;;6.03;5.43;;;;;;;;;;5053914;28;20044;-68
2023/05/24 10:26:05;;;;;;;6.78;5.95;;;;;;;;;;5053981;28;20033;-68
2023/05/24 10:28:33;;;;;;;13.20;6.43;;;;;;;;;;5054132;28;20029;-67
2023/05/24 10:31:17;;;;;;;6.40;5.78;;;;;;;;;;5053476;28;20031;-68
2023/05/24 10:33:47;;;;;;;7.72;6.15;;;;;;;;;;5054008;28;20043;-68
2023/05/24 10:36:14;;;;;;;8.02;6.50;;;;;;;;;;5052501;28;20482;-68
2023/05/24 10:38:41;;;;;;;11.38;6.88;;;;;;;;;;5053775;28;20505;-68
2023/05/24 10:41:08;;;;;;;7.68;6.53;;;;;;;;;;5053640;28;20620;-68
2023/05/24 10:43:35;;;;;;;7.10;6.40;;;;;;;;;;5053853;28;20017;-68
2023/05/24 10:46:03;;;;;;;8.23;6.20;;;;;;;;;;5053461;28;20013;-68
2023/05/24 10:48:30;;;;;;;8.75;6.72;;;;;;;;;;5053664;28;20025;-68
2023/05/24 10:50:56;;;;;;;7.80;6.85;;;;;;;;;;5053366;28;20021;-68
2023/05/24 10:53:23;;;;;;;7.88;7.07;;;;;;;;;;5053365;28;20021;-68
2023/05/24 10:55:56;;;;;;;9.27;6.65;;;;;;;;;;5052358;28;20085;-68
2023/05/24 10:58:26;;;;;;;8.10;6.63;;;;;;;;;;5053281;28;20075;-67
2023/05/24 11:00:52;;;;;;;7.25;5.72;;;;;;;;;;5053088;28;20017;-68
2023/05/24 11:03:23;;;;;;;9.55;6.85;;;;;;;;;;5053140;28;20063;-68
2023/05/24 11:05:49;;;;;;;10.43;6.60;;;;;;;;;;5053325;28;20025;-67
2023/05/24 11:08:32;;;;;;;9.05;6.43;;;;;;;;;;5053311;28;20025;-68
2023/05/24 11:11:08;;;;;;;7.95;7.15;;;;;;;;;;5053442;28;20021;-68
2023/05/24 11:13:36;;;;;;;9.90;7.28;;;;;;;;;;5053128;28;20017;-67
2023/05/24 11:16:03;;;;;;;8.48;5.90;;;;;;;;;;5052786;28;20397;-68
2023/05/24 11:18:31;;;;;;;7.30;6.10;;;;;;;;;;5051682;28;20036;-68
2023/05/24 11:21:02;;;;;;;6.82;6.10;;;;;;;;;;5085133;28;20382;-68
2023/05/24 11:23:28;;;;;;;16.17;6.15;;;;;;;;;;5052615;28;20041;-68
2023/05/24 11:25:56;;;;;;;9.38;6.97;;;;;;;;;;5052823;28;20401;-68
2023/05/24 11:28:23;;;;;;;7.75;6.20;;;;;;;;;;5052283;28;20078;-68
2023/05/24 11:30:49;;;;;;;8.63;6.38;;;;;;;;;;5052663;28;20017;-68
2023/05/24 11:33:18;;;;;;;9.80;6.50;;;;;;;;;;5052811;28;20012;-68
2023/05/24 11:35:46;;;;;;;7.80;6.38;;;;;;;;;;5052323;28;20512;-68
2023/05/24 11:38:13;;;;;;;9.30;7.25;;;;;;;;;;5052027;28;20017;-67
2023/05/24 11:40:43;;;;;;;8.93;6.70;;;;;;;;;;5050878;28;20028;-67
2023/05/24 11:43:09;;;;;;;;;;;;;;;;;;5051328;28;20383;-67
2023/05/24 11:45:36;;;;;;;8.07;6.50;;;;;;;;;;5051639;28;20284;-68
2023/05/24 11:48:06;;;;;;;7.40;6.65;;;;;;;;;;5050592;28;20397;-67
2023/05/24 11:50:36;;;;;;;7.88;6.35;;;;;;;;;;5051912;28;20500;-68
2023/05/24 11:53:03;;;;;;;8.50;6.10;;;;;;;;;;5051904;28;20028;-68
2023/05/24 11:55:31;;;;;;;9.15;6.18;;;;;;;;;;5052082;28;20029;-67
2023/05/24 11:57:58;;;;;;;8.63;6.45;;;;;;;;;;5051679;28;20024;-68
2023/05/24 12:00:25;;;;;;;8.35;6.68;;;;;;;;;;5051737;28;20029;-68
2023/05/24 12:02:51;;;;;;;8.90;5.78;;;;;;;;;;5041981;28;20029;-68
2023/05/24 12:05:18;;;;;;;7.88;5.20;;;;;;;;;;5047291;28;20013;-68
2023/05/24 12:07:47;;;;;;;5.80;5.20;;;;;;;;;;5049980;28;20511;-68
2023/05/24 12:10:17;;;;;;;6.97;5.20;;;;;;;;;;5051414;28;20028;-68
2023/05/24 12:12:44;;;;;;;8.88;4.68;;;;;;;;;;5048248;28;20039;-68
2023/05/24 12:15:11;;;;;;;6.72;4.68;;;;;;;;;;5044997;28;20037;-68
2023/05/24 12:17:38;;;;;;;5.55;4.88;;;;;;;;;;5051382;28;20424;-68
2023/05/24 12:20:05;;;;;;;5.45;4.70;;;;;;;;;;5045633;28;20041;-68
2023/05/24 12:22:32;;;;;;;5.47;4.40;;;;;;;;;;5051302;28;20041;-67
2023/05/24 12:24:58;;;;;;;5.88;4.47;;;;;;;;;;5051558;28;20025;-68
2023/05/24 12:27:29;;;;;;;6.32;5.63;;;;;;;;;;5051056;28;20036;-68
2023/05/24 12:29:55;;;;;;;7.82;5.18;;;;;;;;;;5044530;28;20513;-68
2023/05/24 12:32:22;;;;;;;5.18;4.68;;;;;;;;;;5046757;28;20591;-68
2023/05/24 12:34:49;;;;;;;8.98;6.00;;;;;;;;;;5050116;28;20037;-68
2023/05/24 12:37:17;;;;;;;7.53;5.95;;;;;;;;;;5060011;28;20047;-68
2023/05/24 12:39:43;;;;;;;8.65;5.88;;;;;;;;;;5051983;28;20033;-68
2023/05/24 12:42:13;;;;;;;7.07;5.63;;;;;;;;;;5055242;28;20017;-68
2023/05/24 12:44:39;;;;;;;9.50;5.07;;;;;;;;;;5055660;28;20021;-68
2023/05/24 12:47:06;;;;;;;6.55;4.85;;;;;;;;;;5055065;28;20025;-68
2023/05/24 12:49:33;;;;;;;7.75;4.93;;;;;;;;;;5055652;28;20033;-67
2023/05/24 12:52:00;;;;;;;8.63;5.93;;;;;;;;;;5052676;28;20014;-68
2023/05/24 12:54:27;;;;;;;6.45;5.85;;;;;;;;;;5053628;28;20037;-68
2023/05/24 12:56:54;;;;;;;6.63;5.53;;;;;;;;;;5054463;28;20029;-68
2023/05/24 12:59:21;;;;;;;7.05;6.03;;;;;;;;;;5044565;28;20032;-68
2023/05/24 13:01:51;;;;;;;6.65;5.95;;;;;;;;;;5049235;28;20482;-67
2023/05/24 13:04:18;;;;;;;8.23;6.32;;;;;;;;;;5054428;28;20037;-68
2023/05/24 13:06:44;;;;;;;11.18;5.70;;;;;;;;;;5054784;28;20022;-68
2023/05/24 13:09:12;;;;;;;10.18;6.20;;;;;;;;;;5054688;28;20037;-67
2023/05/24 13:11:38;;;;;;;8.43;6.57;;;;;;;;;;5054192;28;20013;-68
2023/05/24 13:14:06;;;;;;;10.80;6.22;;;;;;;;;;5054552;28;20498;-68
2023/05/24 13:16:34;;;;;;;9.77;5.72;;;;;;;;;;5054794;28;20029;-69
2023/05/24 13:19:00;;;;;;;9.32;6.15;;;;;;;;;;5053645;28;20543;-68
2023/05/24 13:21:26;;;;;;;6.57;5.90;;;;;;;;;;5052967;28;20017;-68
2023/05/24 13:23:53;;;;;;;6.50;5.90;;;;;;;;;;5054453;28;20049;-67
2023/05/24 13:26:20;;;;;;;6.45;5.82;;;;;;;;;;5054325;28;20024;-68
2023/05/24 13:28:47;;;;;;;9.30;5.80;;;;;;;;;;5054450;28;20042;-68
2023/05/24 13:31:13;;;;;;;6.65;5.95;;;;;;;;;;5054233;28;20032;-67
2023/05/24 13:33:39;;;;;;;10.60;5.63;;;;;;;;;;5054093;28;20043;-68
2023/05/24 13:36:07;;;;;;;7.38;6.13;;;;;;;;;;5054467;28;20017;-68
2023/05/24 13:38:33;;;;;;;6.95;5.22;;;;;;;;;;5054313;28;20024;-68
2023/05/24 13:40:59;;;;;;;6.82;5.88;;;;;;;;;;5054081;28;20058;-68
2023/05/24 13:43:26;;;;;;;8.95;6.10;;;;;;;;;;5053036;28;20032;-68
2023/05/24 13:45:52;;;;;;;8.48;5.70;;;;;;;;;;5054441;28;20027;-68
2023/05/24 13:48:18;;;;;;;9.63;5.40;;;;;;;;;;5054593;28;20041;-68
2023/05/24 13:50:45;;;;;;;8.50;5.50;;;;;;;;;;5052258;28;20032;-69
2023/05/24 13:53:12;;;;;;;6.82;5.60;;;;;;;;;;5052339;28;20035;-68
2023/05/24 13:55:38;;;;;;;8.60;6.22;;;;;;;;;;5053625;28;20067;-68
2023/05/24 13:58:05;;;;;;;11.48;5.55;;;;;;;;;;5054308;28;20029;-69
2023/05/24 14:00:32;;;;;;;7.63;5.10;;;;;;;;;;5054529;28;20024;-68
2023/05/24 14:02:58;;;;;;;6.03;5.35;;;;;;;;;;5054019;28;20013;-68
2023/05/24 14:05:25;;;;;;;6.32;5.20;;;;;;;;;;5053038;28;20086;-68
2023/05/24 14:07:51;;;;;;;6.32;5.18;;;;;;;;;;5053925;28;20017;-69
2023/05/24 14:10:17;;;;;;;10.32;5.40;;;;;;;;;;5053751;28;20043;-68
2023/05/24 14:12:44;;;;;;;10.57;4.85;;;;;;;;;;5054122;28;20021;-69
2023/05/24 14:15:10;;;;;;;7.38;4.40;;;;;;;;;;5053829;28;20041;-68
2023/05/24 14:17:36;;;;;;;5.63;4.75;;;;;;;;;;5053588;28;20432;-69
2023/05/24 14:20:03;;;;;;;4.60;4.20;;;;;;;;;;5053640;28;20039;-67
2023/05/24 14:22:29;;;;;;;6.25;5.15;;;;;;;;;;5053674;28;20025;-67
2023/05/24 14:24:56;;;;;;;6.93;4.72;;;;;;;;;;5053718;28;20489;-68
2023/05/24 14:27:22;;;;;;;6.32;5.05;;;;;;;;;;5048850;28;20091;-69
2023/05/24 14:29:48;;;;;;;5.53;4.85;;;;;;;;;;5053576;28;20024;-70
2023/05/24 14:32:16;;;;;;;6.30;4.60;;;;;;;;;;5053713;28;20511;-68
2023/05/24 14:34:43;;;;;;;6.05;4.90;;;;;;;;;;5053512;28;20029;-68
2023/05/24 14:37:09;;;;;;;7.65;4.50;;;;;;;;;;5054064;28;20025;-68